createdAt,value
2022-11-03T00:01:05.297Z,100034.72
2022-11-03T00:03:32.260Z,100035.59
2022-11-03T00:06:05.282Z,100043.41
2022-11-03T00:08:42.511Z,100045.22
2022-11-03T00:11:12.260Z,100050.31
2022-11-03T00:13:41.161Z,100053.84
2022-11-03T00:16:10.253Z,100052.13
2022-11-03T00:18:37.192Z,100054.63
2022-11-03T00:21:06.695Z,100065.31
2022-11-03T00:23:39.382Z,100051.31
2022-11-03T00:26:13.481Z,100061.53
2022-11-03T00:28:42.090Z,100062.31
2022-11-03T00:31:14.913Z,100046.72
2022-11-03T00:33:42.892Z,100055.38
2022-11-03T00:36:14.292Z,100061.59
2022-11-03T00:38:41.393Z,100057.25
2022-11-03T00:41:08.322Z,100060.59
2022-11-03T00:43:36.410Z,100058.03
2022-11-03T00:46:07.954Z,100051.84
2022-11-03T00:48:35.932Z,100051.66
2022-11-03T00:51:10.351Z,100057.00
2022-11-03T00:53:49.174Z,100057.88
2022-11-03T00:56:27.164Z,100049.22
2022-11-03T00:58:55.433Z,100050.09
2022-11-03T01:01:25.063Z,100055.38
2022-11-03T01:04:13.645Z,100045.84
2022-11-03T01:06:52.219Z,100044.00
2022-11-03T01:09:35.632Z,100057.91
2022-11-03T01:12:14.979Z,100043.84
2022-11-03T01:14:50.329Z,100038.56
2022-11-03T01:17:19.168Z,100050.81
2022-11-03T01:19:47.076Z,100050.91
2022-11-03T01:22:15.054Z,100055.94
2022-11-03T01:24:42.713Z,100051.59
2022-11-03T01:27:13.312Z,100059.19
2022-11-03T01:29:40.612Z,100043.63
2022-11-03T01:32:08.873Z,100041.06
2022-11-03T01:34:38.532Z,100041.88
2022-11-03T01:37:06.051Z,100040.97
2022-11-03T01:39:32.972Z,100033.16
2022-11-03T01:41:59.885Z,100033.16
2022-11-03T01:44:34.254Z,100029.78
2022-11-03T01:47:28.274Z,100022.78
2022-11-03T01:49:58.006Z,100029.63
2022-11-03T01:52:34.143Z,100018.41
2022-11-03T01:55:05.030Z,100028.75
2022-11-03T01:57:41.603Z,100030.50
2022-11-03T02:00:08.705Z,100024.38
2022-11-03T02:02:35.968Z,100018.19
2022-11-03T02:05:05.225Z,100025.31
2022-11-03T02:07:40.785Z,100021.75
2022-11-03T02:10:08.984Z,100015.56
2022-11-03T02:12:36.946Z,100011.16
2022-11-03T02:15:09.820Z,100011.94
2022-11-03T02:17:39.428Z,100015.44
2022-11-03T02:20:11.410Z,100022.38
2022-11-03T02:22:53.238Z,100013.69
2022-11-03T02:25:55.172Z,100009.38
2022-11-03T02:28:31.835Z,100005.88
2022-11-03T02:31:04.156Z,100006.78
2022-11-03T02:34:02.230Z,99998.06
2022-11-03T02:36:53.575Z,99997.75
2022-11-03T02:39:25.446Z,99998.84
2022-11-03T02:41:56.401Z,100001.47
2022-11-03T02:44:25.418Z,99998.91
2022-11-03T02:46:57.949Z,99993.63
2022-11-03T02:49:24.837Z,100004.00
2022-11-03T02:52:06.058Z,100002.41
2022-11-03T02:54:40.068Z,99995.47
2022-11-03T02:57:17.237Z,99991.22
2022-11-03T02:59:52.353Z,99993.94
2022-11-03T03:02:28.594Z,99997.38
2022-11-03T03:04:57.839Z,99997.38
2022-11-03T03:07:29.546Z,100001.75
2022-11-03T03:09:56.322Z,99980.75
2022-11-03T03:12:24.557Z,99998.22
2022-11-03T03:14:54.027Z,99987.66
2022-11-03T03:17:45.332Z,99988.75
2022-11-03T03:20:21.552Z,99976.66
2022-11-03T03:23:09.018Z,99980.09
2022-11-03T03:25:43.472Z,99967.06
2022-11-03T03:28:16.098Z,99969.66
2022-11-03T03:30:45.675Z,99982.56
2022-11-03T03:33:15.274Z,99977.13
2022-11-03T03:35:47.169Z,99983.47
2022-11-03T03:38:19.993Z,99979.09
2022-11-03T03:40:51.859Z,99982.69
2022-11-03T03:43:22.008Z,99967.69
2022-11-03T03:45:51.833Z,99977.13
2022-11-03T03:48:19.141Z,99978.88
2022-11-03T03:50:49.304Z,99974.63
2022-11-03T03:53:18.991Z,99963.31
2022-11-03T03:55:49.837Z,99963.31
2022-11-03T03:58:17.860Z,99963.41
2022-11-03T04:00:45.410Z,99970.31
2022-11-03T04:03:23.746Z,99973.78
2022-11-03T04:05:51.615Z,99972.09
2022-11-03T04:08:18.506Z,99980.84
2022-11-03T04:11:06.666Z,99977.44
2022-11-03T04:13:52.793Z,99967.91
2022-11-03T04:16:38.625Z,99971.09
2022-11-03T04:19:24.129Z,99972.69
2022-11-03T04:22:09.665Z,99953.38
2022-11-03T04:24:36.553Z,99967.44
2022-11-03T04:27:30.722Z,99974.44
2022-11-03T04:30:13.336Z,99970.78
2022-11-03T04:32:58.655Z,99966.63
2022-11-03T04:35:28.983Z,99977.91
2022-11-03T04:38:00.982Z,99968.97
2022-11-03T04:40:28.354Z,99978.63
2022-11-03T04:42:56.118Z,99975.16
2022-11-03T04:45:31.185Z,99973.59
2022-11-03T04:48:00.378Z,99964.88
2022-11-03T04:50:27.194Z,99969.97
2022-11-03T04:53:00.865Z,99971.84
2022-11-03T04:55:27.869Z,99964.75
2022-11-03T04:57:58.581Z,99969.22
2022-11-03T05:00:25.429Z,99966.47
2022-11-03T05:02:55.920Z,99971.97
2022-11-03T05:05:26.428Z,99961.28
2022-11-03T05:07:55.905Z,99963.69
2022-11-03T05:10:27.129Z,99954.78
2022-11-03T05:12:57.824Z,99966.19
2022-11-03T05:15:32.150Z,99968.84
2022-11-03T05:18:00.516Z,99977.34
2022-11-03T05:20:35.811Z,99976.38
2022-11-03T05:23:05.325Z,99986.28
2022-11-03T05:25:45.174Z,99987.34
2022-11-03T05:28:37.914Z,99993.53
2022-11-03T05:31:22.675Z,99998.72
2022-11-03T05:33:51.560Z,99997.59
2022-11-03T05:36:24.481Z,100005.53
2022-11-03T05:38:58.850Z,100010.72
2022-11-03T05:41:28.158Z,100008.28
2022-11-03T05:44:04.247Z,100009.28
2022-11-03T05:46:49.558Z,100012.78
2022-11-03T05:49:16.484Z,100022.47
2022-11-03T05:51:44.784Z,100027.75
2022-11-03T05:54:26.894Z,100032.06
2022-11-03T05:57:12.231Z,100034.75
2022-11-03T05:59:39.201Z,100037.13
2022-11-03T06:02:37.747Z,100033.78
2022-11-03T06:05:25.217Z,100027.75
2022-11-03T06:07:55.785Z,100044.38
2022-11-03T06:10:31.541Z,100039.16
2022-11-03T06:13:13.890Z,100038.41
2022-11-03T06:15:44.139Z,100043.81
2022-11-03T06:18:19.084Z,100045.44
2022-11-03T06:20:56.950Z,100056.66
2022-11-03T06:23:24.714Z,100060.00
2022-11-03T06:25:54.075Z,100059.22
2022-11-03T06:28:25.834Z,100059.25
2022-11-03T06:30:52.716Z,100063.66
2022-11-03T06:33:25.304Z,100065.31
2022-11-03T06:36:00.854Z,100061.59
2022-11-03T06:38:30.351Z,100062.50
2022-11-03T06:40:59.102Z,100060.81
2022-11-03T06:43:32.036Z,100065.19
2022-11-03T06:46:01.274Z,100061.59
2022-11-03T06:48:30.115Z,100053.13
2022-11-03T06:50:58.914Z,100061.16
2022-11-03T06:53:29.755Z,100057.50
2022-11-03T06:55:57.031Z,100050.78
2022-11-03T06:58:38.447Z,100057.41
2022-11-03T07:01:24.599Z,100047.19
2022-11-03T07:03:56.463Z,100047.22
2022-11-03T07:06:26.316Z,100059.53
2022-11-03T07:08:58.364Z,100065.66
2022-11-03T07:11:53.143Z,100069.16
2022-11-03T07:14:38.155Z,100059.69
2022-11-03T07:17:16.958Z,100059.38
2022-11-03T07:19:46.096Z,100041.31
2022-11-03T07:22:22.897Z,100040.31
2022-11-03T07:24:54.180Z,100043.03
2022-11-03T07:27:29.823Z,100041.47
2022-11-03T07:30:12.499Z,100030.81
2022-11-03T07:32:39.658Z,100032.19
2022-11-03T07:35:18.427Z,100026.91
2022-11-03T07:37:46.752Z,100028.38
2022-11-03T07:40:16.858Z,100030.34
2022-11-03T07:42:43.700Z,100025.53
2022-11-03T07:45:29.317Z,100027.56
2022-11-03T07:47:59.239Z,100026.84
2022-11-03T07:50:27.429Z,100021.16
2022-11-03T07:52:54.342Z,100023.13
2022-11-03T07:55:21.228Z,100019.75
2022-11-03T07:57:48.489Z,100006.72
2022-11-03T08:00:22.909Z,100010.16
2022-11-03T08:02:59.414Z,100003.38
2022-11-03T08:05:26.254Z,100000.22
2022-11-03T08:07:53.066Z,99996.44
2022-11-03T08:10:21.601Z,99999.31
2022-11-03T08:12:51.656Z,100003.13
2022-11-03T08:15:18.413Z,99999.78
2022-11-03T08:17:45.281Z,99991.94
2022-11-03T08:20:12.400Z,99995.22
2022-11-03T08:22:39.322Z,99992.84
2022-11-03T08:25:06.722Z,99993.38
2022-11-03T08:27:33.567Z,99986.31
2022-11-03T08:30:00.432Z,99983.34
2022-11-03T08:32:27.238Z,99984.13
2022-11-03T08:34:54.080Z,99975.38
2022-11-03T08:37:20.823Z,99976.22
2022-11-03T08:39:48.199Z,99978.78
2022-11-03T08:42:15.141Z,99972.00
2022-11-03T08:44:41.949Z,99967.91
2022-11-03T08:47:10.862Z,99961.41
2022-11-03T08:49:37.751Z,99958.09
2022-11-03T08:52:04.713Z,99967.75
2022-11-03T08:54:31.526Z,99963.66
2022-11-03T08:56:58.375Z,99958.63
2022-11-03T08:59:25.597Z,99964.13
2022-11-03T09:01:52.517Z,99961.84
2022-11-03T09:04:19.435Z,99948.72
2022-11-03T09:06:46.259Z,99960.00
2022-11-03T09:11:59.949Z,99950.59
2022-11-03T09:14:26.850Z,99947.47
2022-11-03T09:16:53.646Z,99945.03
2022-11-03T09:19:20.633Z,99947.69
2022-11-03T09:22:11.868Z,99957.38
2022-11-03T09:24:38.762Z,99957.38
2022-11-03T09:27:05.595Z,99958.25
2022-11-03T09:29:51.494Z,99949.06
2022-11-03T09:32:23.350Z,99950.81
2022-11-03T09:34:50.753Z,99941.25
2022-11-03T09:37:17.705Z,99950.94
2022-11-03T09:39:44.697Z,99933.34
2022-11-03T09:42:15.712Z,99940.09
2022-11-03T09:44:50.620Z,99926.50
2022-11-03T09:47:34.019Z,99923.88
2022-11-03T09:50:01.382Z,99921.19
2022-11-03T09:52:29.053Z,99919.50
2022-11-03T09:54:56.106Z,99909.03
2022-11-03T09:57:24.049Z,99899.50
2022-11-03T09:59:51.557Z,99905.22
2022-11-03T10:02:24.304Z,99896.53
2022-11-03T10:04:53.159Z,99893.78
2022-11-03T10:07:21.801Z,99888.13
2022-11-03T10:09:51.186Z,99890.31
2022-11-03T10:12:18.422Z,99889.88
2022-11-03T10:14:46.888Z,99887.19
2022-11-03T10:17:20.033Z,99887.03
2022-11-03T10:19:51.502Z,99867.78
2022-11-03T10:22:20.828Z,99873.19
2022-11-03T10:24:48.345Z,99868.59
2022-11-03T10:27:26.027Z,99867.06
2022-11-03T10:30:09.947Z,99861.06
2022-11-03T10:32:37.150Z,99852.84
2022-11-03T10:35:34.840Z,99855.66
2022-11-03T10:38:32.873Z,99856.16
2022-11-03T10:41:16.843Z,99842.88
2022-11-03T10:43:46.213Z,99837.72
2022-11-03T10:46:44.614Z,99831.78
2022-11-03T10:49:16.536Z,99830.81
2022-11-03T10:51:47.635Z,99825.81
2022-11-03T10:54:17.279Z,99812.50
2022-11-03T10:56:46.499Z,99812.78
2022-11-03T10:59:32.127Z,99809.25
2022-11-03T11:02:00.259Z,99803.69
2022-11-03T11:04:27.915Z,99795.66
2022-11-03T11:06:55.268Z,99794.59
2022-11-03T11:09:43.666Z,99785.13
2022-11-03T11:12:23.666Z,99786.91
2022-11-03T11:15:02.642Z,99776.47
2022-11-03T11:17:43.189Z,99781.66
2022-11-03T11:20:19.810Z,99771.44
2022-11-03T11:22:47.026Z,99763.63
2022-11-03T11:25:14.219Z,99764.25
2022-11-03T11:27:43.965Z,99760.44
2022-11-03T11:30:30.828Z,99754.38
2022-11-03T11:33:12.990Z,99747.00
2022-11-03T11:35:39.936Z,99729.97
2022-11-03T11:38:44.166Z,99737.03
2022-11-03T11:41:11.081Z,99734.34
2022-11-03T11:43:38.193Z,99728.69
2022-11-03T11:46:32.046Z,99728.94
2022-11-03T11:49:04.909Z,99720.47
2022-11-03T11:51:36.588Z,99712.06
2022-11-03T11:54:18.320Z,99709.03
2022-11-03T11:56:51.558Z,99704.84
2022-11-03T11:59:26.184Z,99709.81
2022-11-03T12:01:57.143Z,99703.03
2022-11-03T12:04:31.490Z,99693.91
2022-11-03T12:06:59.009Z,99697.22
2022-11-03T12:09:27.874Z,99684.75
2022-11-03T12:11:59.374Z,99690.22
2022-11-03T12:14:40.659Z,99677.88
2022-11-03T12:17:16.561Z,99676.66
2022-11-03T12:19:51.802Z,99675.75
2022-11-03T12:22:24.597Z,99675.84
2022-11-03T12:25:02.326Z,99670.13
2022-11-03T12:27:29.306Z,99672.53
2022-11-03T12:29:58.180Z,99656.50
2022-11-03T12:32:33.883Z,99655.78
2022-11-03T12:35:02.071Z,99646.22
2022-11-03T12:37:28.943Z,99645.63
2022-11-03T12:39:55.824Z,99645.59
2022-11-03T12:42:25.158Z,99645.47
2022-11-03T12:44:52.891Z,99639.28
2022-11-03T12:47:20.379Z,99624.53
2022-11-03T12:49:47.233Z,99622.22
2022-11-03T12:52:14.441Z,99623.59
2022-11-03T12:54:42.407Z,99621.56
2022-11-03T12:57:09.780Z,99617.53
2022-11-03T12:59:36.938Z,99621.16
2022-11-03T13:02:07.102Z,99615.41
2022-11-03T13:04:33.981Z,99617.09
2022-11-03T13:07:01.167Z,99611.72
2022-11-03T13:09:28.194Z,99610.13
2022-11-03T13:12:13.888Z,99599.88
2022-11-03T13:14:44.521Z,99599.88
2022-11-03T13:17:15.123Z,99602.75
2022-11-03T13:19:42.224Z,99603.25
2022-11-03T13:22:09.098Z,99599.81
2022-11-03T13:24:54.592Z,99603.25
2022-11-03T13:27:21.497Z,99588.47
2022-11-03T13:29:48.329Z,99592.00
2022-11-03T13:32:15.184Z,99598.22
2022-11-03T13:34:42.188Z,99599.44
2022-11-03T13:37:09.000Z,99595.88
2022-11-03T13:39:36.955Z,99597.69
2022-11-03T13:42:11.659Z,99595.97
2022-11-03T13:44:38.630Z,99588.19
2022-11-03T13:47:08.863Z,99586.34
2022-11-03T13:52:27.313Z,99583.00
2022-11-03T14:00:28.454Z,99574.34
2022-11-03T14:05:42.126Z,99562.38
2022-11-03T14:08:09.291Z,99560.66
2022-11-03T14:10:36.239Z,99561.66
2022-11-03T14:13:03.134Z,99565.16
2022-11-03T14:15:30.099Z,99552.19
2022-11-03T14:17:57.533Z,99551.25
2022-11-03T14:20:24.335Z,99553.00
2022-11-03T14:22:51.291Z,99554.00
2022-11-03T14:25:20.361Z,99544.38
2022-11-03T14:27:47.430Z,99544.41
2022-11-03T14:30:14.861Z,99549.66
2022-11-03T14:32:41.938Z,99541.84
2022-11-03T14:35:09.257Z,99542.81
2022-11-03T14:37:36.299Z,99540.34
2022-11-03T14:40:03.627Z,99542.16
2022-11-03T14:42:30.528Z,99536.09
2022-11-03T14:44:57.401Z,99534.38
2022-11-03T14:47:25.804Z,99531.06
2022-11-03T14:49:52.637Z,99525.84
2022-11-03T14:52:19.513Z,99523.28
2022-11-03T14:54:46.400Z,99512.03
2022-11-03T14:57:13.314Z,99511.19
2022-11-03T14:59:40.209Z,99503.38
2022-11-03T15:02:07.324Z,99509.56
2022-11-03T15:04:34.516Z,99509.59
2022-11-03T15:07:01.508Z,99494.84
2022-11-03T15:09:28.405Z,99501.00
2022-11-03T15:11:55.283Z,99503.66
2022-11-03T15:14:41.035Z,99500.22
2022-11-03T15:17:07.969Z,99494.19
2022-11-03T15:19:34.788Z,99497.72
2022-11-03T15:22:01.645Z,99498.59
2022-11-03T15:27:15.294Z,99496.03
2022-11-03T15:29:42.203Z,99494.34
2022-11-03T15:32:09.157Z,99488.28
2022-11-03T15:34:36.061Z,99483.94
2022-11-03T15:37:03.062Z,99490.06
2022-11-03T15:39:29.964Z,99490.97
2022-11-03T15:41:57.377Z,99480.56
2022-11-03T15:44:24.195Z,99474.47
2022-11-03T15:46:51.052Z,99476.19
2022-11-03T15:49:18.043Z,99477.94
2022-11-03T15:51:44.866Z,99478.88
2022-11-03T15:54:11.663Z,99472.75
2022-11-03T15:56:38.674Z,99474.53
2022-11-03T15:59:05.456Z,99473.66
2022-11-03T16:01:32.645Z,99471.06
2022-11-03T16:04:00.116Z,99471.94
2022-11-03T16:06:53.875Z,99471.97
2022-11-03T16:09:13.885Z,99476.34
2022-11-03T16:11:40.702Z,99474.59
2022-11-03T16:14:07.675Z,99465.91
2022-11-03T16:16:34.516Z,99468.50
2022-11-03T16:19:01.294Z,99469.38
2022-11-03T16:21:29.064Z,99476.31
2022-11-03T16:23:55.933Z,99465.88
2022-11-03T16:26:24.363Z,99471.94
2022-11-03T16:28:51.868Z,99470.22
2022-11-03T16:31:37.474Z,99473.66
2022-11-03T16:34:04.922Z,99460.63
2022-11-03T16:36:31.811Z,99457.13
2022-11-03T16:38:58.705Z,99476.22
2022-11-03T16:41:25.538Z,99474.47
2022-11-03T16:43:52.383Z,99477.91
2022-11-03T16:46:19.356Z,99478.78
2022-11-03T16:48:46.220Z,99479.66
2022-11-03T16:51:13.101Z,99478.75
2022-11-03T16:53:40.008Z,99475.25
2022-11-03T16:56:25.784Z,99481.31
2022-11-03T16:58:52.702Z,99483.00
2022-11-03T17:01:19.580Z,99481.22
2022-11-03T17:03:46.716Z,99477.75
2022-11-03T17:06:13.594Z,99477.66
2022-11-03T17:08:52.817Z,99472.47
2022-11-03T17:11:36.299Z,99468.13
2022-11-03T17:14:08.886Z,99475.03
2022-11-03T17:16:35.822Z,99464.56
2022-11-03T17:19:02.879Z,99465.44
2022-11-03T17:21:29.684Z,99475.81
2022-11-03T17:23:56.740Z,99469.72
2022-11-03T17:26:43.387Z,99469.75
2022-11-03T17:29:15.916Z,99458.41
2022-11-03T17:31:42.953Z,99461.91
2022-11-03T17:34:11.960Z,99467.06
2022-11-03T17:36:39.483Z,99455.75
2022-11-03T17:39:06.322Z,99458.44
2022-11-03T17:41:35.215Z,99461.00
2022-11-03T17:44:20.593Z,99459.19
2022-11-03T17:46:47.492Z,99456.59
2022-11-03T17:49:14.300Z,99455.69
2022-11-03T17:51:42.475Z,99452.13
2022-11-03T17:54:16.253Z,99438.19
2022-11-03T17:56:43.581Z,99446.06
2022-11-03T17:59:15.624Z,99439.03
2022-11-03T18:01:43.009Z,99432.91
2022-11-03T18:04:12.703Z,99420.81
2022-11-03T18:06:39.796Z,99428.56
2022-11-03T18:09:09.758Z,99420.78
2022-11-03T18:11:57.655Z,99423.31
2022-11-03T18:14:27.739Z,99420.75
2022-11-03T18:16:54.979Z,99419.78
2022-11-03T18:19:24.747Z,99415.41
2022-11-03T18:21:51.657Z,99409.38
2022-11-03T18:24:20.468Z,99412.03
2022-11-03T18:26:47.477Z,99411.13
2022-11-03T18:29:14.561Z,99410.28
2022-11-03T18:31:46.909Z,99402.50
2022-11-03T18:34:19.898Z,99406.84
2022-11-03T18:36:46.879Z,99397.22
2022-11-03T18:39:21.445Z,99392.06
2022-11-03T18:41:48.305Z,99386.84
2022-11-03T18:44:21.447Z,99392.91
2022-11-03T18:46:49.292Z,99384.25
2022-11-03T18:49:16.414Z,99380.75
2022-11-03T18:52:01.188Z,99380.78
2022-11-03T18:54:31.742Z,99369.41
2022-11-03T18:56:59.306Z,99381.59
2022-11-03T18:59:30.966Z,99373.75
2022-11-03T19:01:58.511Z,99372.84
2022-11-03T19:04:25.358Z,99369.31
2022-11-03T19:06:52.940Z,99369.25
2022-11-03T19:09:25.332Z,99377.91
2022-11-03T19:11:56.120Z,99379.56
2022-11-03T19:14:29.055Z,99378.59
2022-11-03T19:19:45.398Z,99360.31
2022-11-03T19:22:30.687Z,99369.88
2022-11-03T19:25:16.337Z,99362.13
2022-11-03T19:27:47.022Z,99350.66
2022-11-03T19:30:16.729Z,99346.44
2022-11-03T19:32:46.661Z,99340.28
2022-11-03T19:35:22.339Z,99333.03
2022-11-03T19:37:51.266Z,99337.47
2022-11-03T19:40:20.039Z,99338.44
2022-11-03T19:42:48.900Z,99323.72
2022-11-03T19:45:20.383Z,99346.28
2022-11-03T19:48:22.468Z,99341.97
2022-11-03T19:51:00.561Z,99341.09
2022-11-03T19:53:29.455Z,99335.81
2022-11-03T19:55:57.023Z,99336.66
2022-11-03T19:58:26.954Z,99339.25
2022-11-03T20:00:54.444Z,99326.28
2022-11-03T20:03:22.404Z,99327.97
2022-11-03T20:05:53.544Z,99334.72
2022-11-03T20:08:23.574Z,99319.16
2022-11-03T20:10:50.960Z,99322.72
2022-11-03T20:13:26.796Z,99318.38
2022-11-03T20:15:59.108Z,99311.31
2022-11-03T20:18:27.899Z,99315.78
2022-11-03T20:20:54.894Z,99307.94
2022-11-03T20:23:30.337Z,99312.25
2022-11-03T20:25:57.957Z,99312.25
2022-11-03T20:28:28.596Z,99300.09
2022-11-03T20:30:56.402Z,99305.25
2022-11-03T20:33:25.020Z,99298.38
2022-11-03T20:35:53.680Z,99312.97
2022-11-03T20:38:21.241Z,99291.34
2022-11-03T20:40:51.482Z,99287.91
2022-11-03T20:43:31.709Z,99292.09
2022-11-03T20:45:59.815Z,99281.69
2022-11-03T20:48:27.573Z,99287.78
2022-11-03T20:50:55.392Z,99286.09
2022-11-03T20:53:24.381Z,99289.69
2022-11-03T20:55:52.522Z,99280.97
2022-11-03T20:58:19.730Z,99289.75
2022-11-03T21:00:48.333Z,99288.88
2022-11-03T21:03:37.815Z,99290.66
2022-11-03T21:06:11.561Z,99271.66
2022-11-03T21:08:38.531Z,99254.34
2022-11-03T21:11:24.204Z,99263.16
2022-11-03T21:13:52.845Z,99256.28
2022-11-03T21:16:38.276Z,99258.09
2022-11-03T21:19:44.265Z,99252.09
2022-11-03T21:22:51.834Z,99248.56
2022-11-03T21:25:18.974Z,99247.84
2022-11-03T21:27:46.495Z,99244.38
2022-11-03T21:30:15.195Z,99233.94
2022-11-03T21:32:42.140Z,99234.00
2022-11-03T21:35:17.750Z,99230.56
2022-11-03T21:37:44.575Z,99228.84
2022-11-03T21:40:12.289Z,99234.06
2022-11-03T21:42:57.749Z,99228.91
2022-11-03T21:45:24.932Z,99220.19
2022-11-03T21:48:13.554Z,99229.72
2022-11-03T21:50:42.059Z,99227.09
2022-11-03T21:53:09.351Z,99216.72
2022-11-03T21:55:36.716Z,99217.59
2022-11-03T21:58:04.267Z,99219.38
2022-11-03T22:00:32.408Z,99208.94
2022-11-03T22:03:00.187Z,99202.94
2022-11-03T22:05:27.268Z,99205.56
2022-11-03T22:07:57.169Z,99201.22
2022-11-03T22:10:24.477Z,99192.59
2022-11-03T22:12:51.405Z,99192.56
2022-11-03T22:15:37.230Z,99195.19
2022-11-03T22:18:06.494Z,99190.00
2022-11-03T22:20:54.413Z,99165.72
2022-11-03T22:23:40.148Z,99165.69
2022-11-03T22:26:31.714Z,99157.03
2022-11-03T22:29:20.256Z,99148.31
2022-11-03T22:33:53.433Z,99137.03
2022-11-03T22:36:26.157Z,99156.06
2022-11-03T22:39:11.351Z,99152.59
2022-11-03T22:41:58.732Z,99142.19
2022-11-03T22:44:47.611Z,99154.34
2022-11-03T22:47:17.449Z,99151.72
2022-11-03T22:50:00.230Z,99149.97
2022-11-03T22:52:27.070Z,99152.59
2022-11-03T22:54:54.025Z,99152.59
2022-11-03T22:57:20.964Z,99152.59
2022-11-03T22:59:47.875Z,99162.16
2022-11-03T23:02:14.853Z,99151.72
2022-11-03T23:04:42.078Z,99151.72
2022-11-03T23:07:09.113Z,99141.34
2022-11-03T23:09:35.973Z,99151.72
2022-11-03T23:12:02.984Z,99146.53
2022-11-03T23:14:49.822Z,99144.81
2022-11-03T23:17:16.799Z,99130.94
2022-11-03T23:20:02.634Z,99136.19
2022-11-03T23:22:29.568Z,99128.38
2022-11-03T23:25:02.213Z,99132.72
2022-11-03T23:27:29.213Z,99128.38
2022-11-03T23:29:56.173Z,99124.03
2022-11-03T23:32:23.245Z,99124.97
2022-11-03T23:34:50.373Z,99119.72
2022-11-03T23:37:17.654Z,99119.75
2022-11-03T23:39:44.452Z,99120.63
2022-11-03T23:42:12.973Z,99111.06
2022-11-03T23:44:58.524Z,99109.38
2022-11-03T23:47:44.115Z,99106.75
2022-11-03T23:50:11.125Z,99105.88
2022-11-03T23:52:38.588Z,99111.09
2022-11-03T23:55:06.345Z,99099.81
2022-11-03T23:57:51.734Z,99103.28
